Birmingham, AL (35290)

1:58 PM CDT on March 28, 2015 (GMT -0500)
Crestwood South | | Change Station
CLOSE
Current Station
Personal Weather Station
Location: Birmingham, AL
Elevation: 1079 ft
Nearby Weather Stations
Active Advisory: Freeze Warning

Elev 1079 ft 33.52 °N, 86.74 °W | Updated 51 seconds ago

Mostly Cloudy
Mostly Cloudy
49.4 °F
Feels Like 49 °F
N
2.0
Wind Variable Wind from North

Today
High -- | Low -- °F
--% Chance of Precip.
Yesterday
High -- | Low -- °F
Precip. -- in
6:40 AM 7:04 PM
Waxing Gibbous, 64% visible
Pressure 30.25 in
Visibility 10.0 miles
Clouds Scattered Clouds 15000 ft
Mostly Cloudy 25000 ft
Windchill 49 °F
Dew Point 25 °F
Humidity 38%
Rainfall 0.00 in
Snow Depth Not available.
UV 5 out of 12
Pollen 8.80 out of 12
Air Quality Not available.
Flu Activity Not available.
METAR KBHM 281853Z 35010KT 10SM SCT150 BKN250 11/M08 A3025 RMK AO2 SLP243 T01061083

More Conditions Fewer Conditions

Pressure 30.25 in
Visibility 10.0 miles
Clouds Scattered Clouds 15000 ft
Mostly Cloudy 25000 ft
Windchill 49 °F
Dew Point 25 °F
Humidity 38%
Rainfall 0.00 in
Snow Depth Not available.
UV 5 out of 12
Pollen 8.80 out of 12
Air Quality Not available.
Flu Activity Not available.
METAR KBHM 281853Z 35010KT 10SM SCT150 BKN250 11/M08 A3025 RMK AO2 SLP243 T01061083

More Conditions Fewer Conditions

10-Day Weather Forecast

Almanac

Astronomy

Mar. 28, 2015 Rise Set
Actual Time
Civil Twilight
Nautical Twilight
Astronomical Twilight
Moon
Length of Visible Light
Length of Day
Tomorrow will be .
, % of the Moon is Illuminated

Today's Extremes

State Highs State Lows

Community

WunderPhotos

Upload Photos

1,809,055 photos uploaded!

WunderBlogs® & News

Nearby

Air Quality

  Air Quality AQ Index Pollutant
Not available.

Snow Depth

Station Depth Elevation

Earthquake Activity

City Distance Mag. Time & Date
Minimum magnitude displayed is 2.5.

Coastal Water Temperatures

Place Temperature

Stations

Nearby Weather Stations

Station Location Temp. Windchill Dew Point Humidity Wind Precip. Elev Updated Type
                   
Freeze Warning
Statement as of 9:45 AM CDT on March 28, 2015

... Freeze warning remains in effect from 1 am to 9 am CDT
Sunday...

* temperatures... 28 to 32.

* Impacts... freezing temperatures could damage tender vegetation.

Precautionary/preparedness actions...

A frost advisory means that widespread frost is expected.
Sensitive outdoor plants may be killed if left uncovered.

A freeze warning means sub-freezing temperatures are imminent or
highly likely. These conditions will kill crops and other
sensitive vegetation.